createdAt,value
2019-01-26T00:02:16.017Z,16.15
2019-01-26T00:04:47.842Z,17.52
2019-01-26T00:07:18.789Z,16.12
2019-01-26T00:09:52.657Z,16.77
2019-01-26T00:12:23.291Z,15.50
2019-01-26T00:14:53.894Z,16.40
2019-01-26T00:17:29.855Z,15.40
2019-01-26T00:20:00.415Z,13.75
2019-01-26T00:22:31.066Z,16.65
2019-01-26T00:25:01.537Z,16.42
2019-01-26T00:27:32.102Z,16.55
2019-01-26T00:30:03.125Z,16.12
2019-01-26T00:32:35.876Z,15.38
2019-01-26T00:35:07.545Z,14.40
2019-01-26T00:37:38.840Z,13.85
2019-01-26T00:40:12.842Z,16.07
2019-01-26T00:42:43.510Z,16.87
2019-01-26T00:45:16.396Z,19.80
2019-01-26T00:47:47.355Z,17.77
2019-01-26T00:50:18.800Z,16.15
2019-01-26T00:52:50.565Z,16.37
2019-01-26T00:55:24.432Z,20.00
2019-01-26T00:57:55.114Z,18.10
2019-01-26T01:00:25.822Z,16.40
2019-01-26T01:02:56.554Z,18.95
2019-01-26T01:05:36.838Z,15.32
2019-01-26T01:08:07.609Z,15.43
2019-01-26T01:10:38.696Z,17.77
2019-01-26T01:13:09.370Z,16.82
2019-01-26T01:15:42.340Z,18.65
2019-01-26T01:18:12.874Z,19.10
2019-01-26T01:20:44.195Z,17.17
2019-01-26T01:23:16.918Z,20.27
2019-01-26T01:25:47.268Z,16.77
2019-01-26T01:28:18.212Z,18.35
2019-01-26T01:30:49.134Z,19.32
2019-01-26T01:33:20.058Z,16.95
2019-01-26T01:35:52.183Z,17.95
2019-01-26T01:38:23.623Z,18.70
2019-01-26T01:40:54.571Z,18.82
2019-01-26T01:43:25.203Z,20.62
2019-01-26T01:45:59.276Z,17.20
2019-01-26T01:48:29.857Z,15.78
2019-01-26T01:51:01.667Z,15.85
2019-01-26T01:53:32.281Z,16.52
2019-01-26T01:56:05.067Z,15.78
2019-01-26T01:58:35.721Z,17.05
2019-01-26T02:01:06.484Z,16.02
2019-01-26T02:03:39.063Z,16.23
2019-01-26T02:06:09.445Z,16.35
2019-01-26T02:08:40.639Z,17.25
2019-01-26T02:11:11.321Z,17.12
2019-01-26T02:13:45.187Z,17.17
2019-01-26T02:16:15.817Z,16.77
2019-01-26T02:18:46.434Z,14.68
2019-01-26T02:21:17.761Z,15.35
2019-01-26T02:23:48.361Z,16.00
2019-01-26T02:26:22.017Z,15.08
2019-01-26T02:28:55.020Z,17.00
2019-01-26T02:31:26.815Z,18.25
2019-01-26T02:34:00.209Z,16.12
2019-01-26T02:36:30.932Z,16.67
2019-01-26T02:39:02.740Z,19.15
2019-01-26T02:41:33.751Z,17.40
2019-01-26T02:44:04.574Z,17.50
2019-01-26T02:46:38.751Z,16.55
2019-01-26T02:49:09.724Z,16.60
2019-01-26T02:51:40.398Z,19.20
2019-01-26T02:54:11.041Z,17.82
2019-01-26T02:56:42.074Z,16.82
2019-01-26T02:59:13.125Z,16.48
2019-01-26T03:01:44.074Z,16.60
2019-01-26T03:04:14.707Z,16.85
2019-01-26T03:06:45.395Z,15.60
2019-01-26T03:09:16.461Z,15.93
2019-01-26T03:11:47.529Z,12.20
2019-01-26T03:14:18.236Z,15.80
2019-01-26T03:16:48.880Z,14.95
2019-01-26T03:19:19.539Z,15.45
2019-01-26T03:21:50.836Z,17.05
2019-01-26T03:24:21.482Z,15.63
2019-01-26T03:26:52.106Z,16.87
2019-01-26T03:29:25.040Z,17.37
2019-01-26T03:31:55.353Z,15.98
2019-01-26T03:34:26.049Z,17.73
2019-01-26T03:36:57.611Z,17.32
2019-01-26T03:39:29.066Z,14.90
2019-01-26T03:41:59.822Z,15.03
2019-01-26T03:44:30.414Z,17.12
2019-01-26T03:47:02.739Z,17.25
2019-01-26T03:49:36.619Z,16.07
2019-01-26T03:52:07.323Z,15.58
2019-01-26T03:54:38.015Z,18.37
2019-01-26T03:57:08.724Z,16.02
2019-01-26T03:59:39.439Z,17.77
2019-01-26T04:02:10.140Z,16.52
2019-01-26T04:04:41.675Z,15.53
2019-01-26T04:07:12.714Z,15.10
2019-01-26T04:09:43.331Z,16.73
2019-01-26T04:12:14.003Z,16.37
2019-01-26T04:14:45.024Z,15.50
2019-01-26T04:17:22.003Z,16.63
2019-01-26T04:19:52.149Z,16.62
2019-01-26T04:22:23.112Z,17.00
2019-01-26T04:24:54.035Z,17.42
2019-01-26T04:27:24.988Z,17.32
2019-01-26T04:29:55.908Z,17.00
2019-01-26T04:32:28.363Z,17.90
2019-01-26T04:35:01.766Z,17.77
2019-01-26T04:37:32.830Z,16.85
2019-01-26T04:40:05.561Z,17.42
2019-01-26T04:42:39.454Z,18.10
2019-01-26T04:45:14.448Z,15.53
2019-01-26T04:47:45.937Z,17.20
2019-01-26T04:50:19.450Z,17.83
2019-01-26T04:52:53.335Z,17.92
2019-01-26T04:55:23.978Z,15.72
2019-01-26T04:57:54.767Z,17.00
2019-01-26T05:00:28.940Z,16.42
2019-01-26T05:02:59.586Z,18.23
2019-01-26T05:05:36.606Z,17.70
2019-01-26T05:08:07.293Z,16.25
2019-01-26T05:10:38.631Z,16.48
2019-01-26T05:13:09.305Z,16.80
2019-01-26T05:15:40.243Z,17.05
2019-01-26T05:18:10.925Z,14.87
2019-01-26T05:20:41.584Z,17.02
2019-01-26T05:23:12.283Z,16.87
2019-01-26T05:25:42.934Z,16.95
2019-01-26T05:28:13.548Z,18.05
2019-01-26T05:30:44.207Z,15.88
2019-01-26T05:33:14.834Z,16.93
2019-01-26T05:35:48.209Z,16.15
2019-01-26T05:38:19.236Z,15.85
2019-01-26T05:40:51.649Z,17.55
2019-01-26T05:43:22.589Z,15.85
2019-01-26T05:45:53.244Z,17.98
2019-01-26T05:48:25.098Z,17.48
2019-01-26T05:50:56.066Z,17.02
2019-01-26T05:53:26.752Z,17.95
2019-01-26T05:55:57.436Z,15.85
2019-01-26T05:58:28.093Z,15.30
2019-01-26T06:01:00.310Z,17.90
2019-01-26T06:03:35.552Z,15.58
2019-01-26T06:06:06.225Z,16.57
2019-01-26T06:08:36.903Z,16.48
2019-01-26T06:11:07.614Z,15.65
2019-01-26T06:13:38.347Z,15.08
2019-01-26T06:16:08.948Z,16.52
2019-01-26T06:18:39.824Z,16.15
2019-01-26T06:21:15.219Z,17.10
2019-01-26T06:23:49.567Z,17.87
2019-01-26T06:26:20.225Z,16.93
2019-01-26T06:28:53.812Z,17.02
2019-01-26T06:31:24.830Z,19.77
2019-01-26T06:33:55.553Z,16.93
2019-01-26T06:36:35.004Z,16.23
2019-01-26T06:39:08.169Z,17.82
2019-01-26T06:41:39.566Z,16.37
2019-01-26T06:44:13.357Z,17.45
2019-01-26T06:46:45.197Z,18.25
2019-01-26T06:49:15.925Z,18.30
2019-01-26T06:51:48.187Z,17.65
2019-01-26T06:54:21.424Z,16.50
2019-01-26T06:56:51.473Z,17.65
2019-01-26T06:59:22.131Z,18.37
2019-01-26T07:01:52.819Z,18.37
2019-01-26T07:04:25.454Z,18.30
2019-01-26T07:07:09.351Z,17.87
2019-01-26T07:09:42.992Z,19.70
2019-01-26T07:12:13.604Z,18.70
2019-01-26T07:14:47.521Z,19.77
2019-01-26T07:17:18.125Z,22.17
2019-01-26T07:19:51.202Z,19.65
2019-01-26T07:22:21.863Z,21.50
2019-01-26T07:24:52.816Z,23.90
2019-01-26T07:27:25.179Z,24.02
2019-01-26T07:29:55.857Z,22.85
2019-01-26T07:32:30.530Z,20.93
2019-01-26T07:35:02.098Z,20.88
2019-01-26T07:37:41.211Z,23.80
2019-01-26T07:40:21.200Z,22.37
2019-01-26T07:42:57.215Z,23.63
2019-01-26T07:45:31.526Z,22.67
2019-01-26T07:48:06.462Z,22.77
2019-01-26T07:50:37.487Z,23.30
2019-01-26T07:53:13.642Z,25.10
2019-01-26T07:55:45.401Z,22.73
2019-01-26T07:58:17.376Z,24.10
2019-01-26T08:00:49.448Z,21.93
2019-01-26T08:03:24.406Z,22.23
2019-01-26T08:05:57.018Z,16.87
2019-01-26T08:08:27.692Z,17.65
2019-01-26T08:11:00.806Z,18.77
2019-01-26T08:13:31.549Z,23.22
2019-01-26T08:16:04.221Z,18.70
2019-01-26T08:18:34.653Z,19.27
2019-01-26T08:21:08.368Z,19.35
2019-01-26T08:23:38.116Z,19.30
2019-01-26T08:26:11.690Z,19.90
2019-01-26T08:28:42.314Z,20.33
2019-01-26T08:31:13.052Z,20.37
2019-01-26T08:33:43.669Z,19.40
2019-01-26T08:36:14.620Z,19.20
2019-01-26T08:38:45.997Z,22.93
2019-01-26T08:41:16.679Z,19.37
2019-01-26T08:43:48.086Z,23.03
2019-01-26T08:46:18.728Z,19.67
2019-01-26T08:48:49.582Z,18.03
2019-01-26T08:51:20.381Z,19.77
2019-01-26T08:53:51.083Z,25.10
2019-01-26T08:56:22.004Z,27.67
2019-01-26T08:58:52.675Z,23.40
2019-01-26T09:01:25.086Z,24.53
2019-01-26T09:04:00.262Z,24.17
2019-01-26T09:06:31.695Z,26.33
2019-01-26T09:09:02.344Z,26.97
2019-01-26T09:11:33.833Z,25.67
2019-01-26T09:14:04.589Z,22.03
2019-01-26T09:16:37.825Z,22.53
2019-01-26T09:19:10.275Z,20.13
2019-01-26T09:21:41.024Z,21.90
2019-01-26T09:24:11.971Z,19.60
2019-01-26T09:26:42.589Z,21.20
2019-01-26T09:29:13.282Z,22.30
2019-01-26T09:31:48.266Z,21.60
2019-01-26T09:34:18.965Z,25.57
2019-01-26T09:36:49.943Z,25.37
2019-01-26T09:39:21.125Z,24.70
2019-01-26T09:41:51.896Z,28.57
2019-01-26T09:44:25.155Z,30.37
2019-01-26T09:46:56.091Z,27.50
2019-01-26T09:49:27.129Z,29.23
2019-01-26T09:51:59.552Z,29.33
2019-01-26T09:54:30.172Z,25.97
2019-01-26T09:57:01.133Z,27.60
2019-01-26T09:59:31.752Z,26.90
2019-01-26T10:02:02.395Z,22.20
2019-01-26T10:04:33.022Z,19.50
2019-01-26T10:07:03.758Z,20.77
2019-01-26T10:09:34.409Z,23.87
2019-01-26T10:12:05.734Z,26.23
2019-01-26T10:14:36.361Z,25.00
2019-01-26T10:17:07.103Z,26.43
2019-01-26T10:19:37.735Z,27.20
2019-01-26T10:22:08.739Z,26.37
2019-01-26T10:24:42.440Z,24.67
2019-01-26T10:27:13.122Z,26.63
2019-01-26T10:29:43.776Z,26.40
2019-01-26T10:32:16.053Z,26.97
2019-01-26T10:34:46.659Z,29.70
2019-01-26T10:37:19.612Z,30.80
2019-01-26T10:39:50.401Z,31.37
2019-01-26T10:42:22.339Z,30.77
2019-01-26T10:44:54.463Z,31.73
2019-01-26T10:47:25.114Z,30.57
2019-01-26T10:49:55.702Z,34.37
2019-01-26T10:52:26.416Z,32.40
2019-01-26T10:54:56.998Z,34.37
2019-01-26T10:57:31.712Z,32.83
2019-01-26T11:00:04.385Z,33.97
2019-01-26T11:02:35.064Z,30.10
2019-01-26T11:05:07.744Z,29.10
2019-01-26T11:07:38.454Z,29.07
2019-01-26T11:10:13.266Z,31.53
2019-01-26T11:12:44.021Z,29.67
2019-01-26T11:15:18.342Z,27.57
2019-01-26T11:17:49.050Z,30.07
2019-01-26T11:20:21.848Z,28.43
2019-01-26T11:22:57.728Z,31.30
2019-01-26T11:25:28.736Z,28.90
2019-01-26T11:28:02.366Z,29.37
2019-01-26T11:30:34.714Z,27.20
2019-01-26T11:33:05.475Z,28.13
2019-01-26T11:35:36.375Z,24.63
2019-01-26T11:38:07.019Z,23.50
2019-01-26T11:40:40.678Z,24.07
2019-01-26T11:43:11.332Z,24.43
2019-01-26T11:45:47.181Z,24.33
2019-01-26T11:48:25.437Z,24.80
2019-01-26T11:51:00.596Z,23.07
2019-01-26T11:53:31.214Z,25.23
2019-01-26T11:56:06.227Z,25.10
2019-01-26T11:58:37.326Z,24.97
2019-01-26T12:01:18.292Z,23.53
2019-01-26T12:03:56.593Z,23.23
2019-01-26T12:06:28.858Z,22.47
2019-01-26T12:08:59.541Z,21.47
2019-01-26T12:11:30.219Z,24.13
2019-01-26T12:14:00.916Z,24.00
2019-01-26T12:16:37.182Z,22.67
2019-01-26T12:19:10.538Z,24.83
2019-01-26T12:21:41.555Z,24.10
2019-01-26T12:24:12.596Z,24.67
2019-01-26T12:26:43.524Z,24.30
2019-01-26T12:29:14.264Z,22.53
2019-01-26T12:31:48.275Z,24.50
2019-01-26T12:34:19.282Z,23.33
2019-01-26T12:36:50.281Z,25.07
2019-01-26T12:39:21.334Z,23.17
2019-01-26T12:41:55.182Z,22.97
2019-01-26T12:44:25.860Z,23.70
2019-01-26T12:46:57.426Z,24.97
2019-01-26T12:49:29.689Z,25.07
2019-01-26T12:52:00.361Z,23.13
2019-01-26T12:54:31.972Z,25.33
2019-01-26T12:57:05.760Z,24.37
2019-01-26T12:59:36.333Z,25.80
2019-01-26T13:02:07.785Z,26.43
2019-01-26T13:04:38.463Z,26.57
2019-01-26T13:07:09.055Z,26.07
2019-01-26T13:09:39.787Z,25.20
2019-01-26T13:12:10.714Z,25.53
2019-01-26T13:14:41.785Z,25.17
2019-01-26T13:17:12.496Z,26.53
2019-01-26T13:19:43.408Z,28.87
2019-01-26T13:22:17.165Z,29.37
2019-01-26T13:24:48.040Z,27.53
2019-01-26T13:27:18.695Z,27.03
2019-01-26T13:29:52.385Z,28.90
2019-01-26T13:32:23.079Z,30.20
2019-01-26T13:34:55.006Z,31.77
2019-01-26T13:37:25.632Z,29.27
2019-01-26T13:39:56.602Z,31.17
2019-01-26T13:42:27.323Z,31.37
2019-01-26T13:45:00.190Z,33.43
2019-01-26T13:47:37.814Z,32.30
2019-01-26T13:50:05.977Z,32.70
2019-01-26T13:52:39.778Z,31.90
2019-01-26T13:55:15.325Z,32.53
2019-01-26T13:57:46.077Z,31.10
2019-01-26T14:00:23.871Z,31.10
2019-01-26T14:02:54.490Z,31.60
2019-01-26T14:05:25.079Z,29.33
2019-01-26T14:07:55.724Z,28.67
2019-01-26T14:10:27.068Z,28.53
2019-01-26T14:12:57.675Z,28.90
2019-01-26T14:15:28.233Z,29.03
2019-01-26T14:18:02.997Z,29.57
2019-01-26T14:20:33.538Z,29.93
2019-01-26T14:23:04.541Z,30.10
2019-01-26T14:25:35.188Z,28.80
2019-01-26T14:28:06.069Z,29.27
2019-01-26T14:30:47.490Z,29.80
2019-01-26T14:33:19.349Z,30.60
2019-01-26T14:35:52.204Z,31.67
2019-01-26T14:38:23.187Z,28.53
2019-01-26T14:40:56.922Z,30.93
2019-01-26T14:43:28.977Z,30.33
2019-01-26T14:46:01.079Z,30.33
2019-01-26T14:48:32.359Z,31.07
2019-01-26T14:51:03.048Z,30.03
2019-01-26T14:53:39.042Z,29.47
2019-01-26T14:56:09.622Z,29.80
2019-01-26T14:58:40.266Z,28.73
2019-01-26T15:01:11.679Z,26.00
2019-01-26T15:03:45.796Z,27.80
2019-01-26T15:06:16.465Z,28.10
2019-01-26T15:08:47.059Z,25.83
2019-01-26T15:11:20.641Z,26.27
2019-01-26T15:13:51.293Z,27.33
2019-01-26T15:16:21.975Z,26.10
2019-01-26T15:18:52.632Z,25.37
2019-01-26T15:21:24.134Z,26.17
2019-01-26T15:23:54.628Z,27.93
2019-01-26T15:26:25.292Z,26.60
2019-01-26T15:28:55.834Z,28.63
2019-01-26T15:31:26.386Z,27.87
2019-01-26T15:33:57.740Z,28.40
2019-01-26T15:36:28.607Z,30.23
2019-01-26T15:39:01.385Z,28.90
2019-01-26T15:41:31.979Z,28.77
2019-01-26T15:44:02.500Z,29.03
2019-01-26T15:46:33.053Z,30.20
2019-01-26T15:49:06.058Z,28.87
2019-01-26T15:51:37.563Z,29.57
2019-01-26T15:54:08.862Z,28.00
2019-01-26T15:56:40.518Z,31.73
2019-01-26T15:59:12.604Z,29.23
2019-01-26T16:01:44.803Z,30.50
2019-01-26T16:04:18.266Z,26.00
2019-01-26T16:06:52.048Z,26.03
2019-01-26T16:09:22.746Z,29.43
2019-01-26T16:11:53.693Z,24.97
2019-01-26T16:14:24.270Z,23.97
2019-01-26T16:16:56.952Z,41.43
2019-01-26T16:19:30.467Z,35.77
2019-01-26T16:22:00.901Z,32.30
2019-01-26T16:24:35.137Z,31.60
2019-01-26T16:27:06.023Z,25.57
2019-01-26T16:29:37.416Z,26.00
2019-01-26T16:32:09.692Z,28.07
2019-01-26T16:34:40.693Z,31.07
2019-01-26T16:37:12.098Z,36.97
2019-01-26T16:39:42.838Z,34.13
2019-01-26T16:42:13.922Z,29.07
2019-01-26T16:44:44.924Z,28.23
2019-01-26T16:47:16.555Z,28.00
2019-01-26T16:49:48.005Z,28.67
2019-01-26T16:52:18.578Z,34.50
2019-01-26T16:54:49.157Z,34.30
2019-01-26T16:57:20.155Z,30.17
2019-01-26T16:59:53.937Z,30.67
2019-01-26T17:02:24.476Z,29.73
2019-01-26T17:04:55.629Z,28.83
2019-01-26T17:07:26.195Z,33.03
2019-01-26T17:09:56.837Z,34.97
2019-01-26T17:12:30.566Z,34.90
2019-01-26T17:15:02.485Z,35.90
2019-01-26T17:17:33.172Z,34.80
2019-01-26T17:20:10.019Z,35.37
2019-01-26T17:22:46.589Z,34.27
2019-01-26T17:25:18.084Z,34.73
2019-01-26T17:27:48.800Z,32.13
2019-01-26T17:30:26.361Z,33.77
2019-01-26T17:32:57.020Z,32.30
2019-01-26T17:35:27.559Z,33.07
2019-01-26T17:37:58.224Z,33.60
2019-01-26T17:40:28.839Z,36.80
2019-01-26T17:42:59.500Z,35.03
2019-01-26T17:45:31.317Z,37.27
2019-01-26T17:48:02.074Z,34.47
2019-01-26T17:50:33.369Z,33.90
2019-01-26T17:53:04.062Z,35.77
2019-01-26T17:55:34.617Z,34.10
2019-01-26T17:58:05.936Z,36.23
2019-01-26T18:00:38.610Z,33.27
2019-01-26T18:03:09.713Z,32.27
2019-01-26T18:05:42.127Z,31.10
2019-01-26T18:08:13.301Z,31.47
2019-01-26T18:10:45.768Z,29.53
2019-01-26T18:13:16.478Z,34.23
2019-01-26T18:15:46.988Z,29.73
2019-01-26T18:18:18.219Z,32.60
2019-01-26T18:20:49.519Z,31.80
2019-01-26T18:23:21.899Z,26.27
2019-01-26T18:25:52.680Z,25.90
2019-01-26T18:28:24.244Z,30.87
2019-01-26T18:30:56.506Z,30.00
2019-01-26T18:33:27.070Z,33.33
2019-01-26T18:35:57.844Z,32.50
2019-01-26T18:38:28.707Z,32.00
2019-01-26T18:40:59.318Z,32.30
2019-01-26T18:43:29.993Z,32.30
2019-01-26T18:46:00.621Z,31.13
2019-01-26T18:48:31.384Z,34.97
2019-01-26T18:51:02.739Z,34.70
2019-01-26T18:53:34.140Z,34.10
2019-01-26T18:56:04.752Z,32.50
2019-01-26T18:58:39.761Z,32.77
2019-01-26T19:01:10.735Z,35.13
2019-01-26T19:03:51.341Z,36.47
2019-01-26T19:06:21.906Z,34.77
2019-01-26T19:08:53.472Z,37.90
2019-01-26T19:11:24.296Z,39.20
2019-01-26T19:13:54.921Z,36.07
2019-01-26T19:16:25.950Z,37.17
2019-01-26T19:18:58.254Z,36.90
2019-01-26T19:21:28.852Z,35.90
2019-01-26T19:24:00.527Z,38.67
2019-01-26T19:26:32.243Z,36.47
2019-01-26T19:29:02.838Z,36.63
2019-01-26T19:31:33.807Z,37.50
2019-01-26T19:34:04.822Z,37.20
2019-01-26T19:36:35.404Z,36.97
2019-01-26T19:39:10.951Z,36.47
2019-01-26T19:41:41.741Z,37.87
2019-01-26T19:44:15.320Z,37.77
2019-01-26T19:46:45.938Z,36.63
2019-01-26T19:49:16.654Z,39.83
2019-01-26T19:51:48.500Z,39.37
2019-01-26T19:54:19.527Z,39.43
2019-01-26T19:56:50.198Z,37.43
2019-01-26T19:59:21.240Z,36.80
2019-01-26T20:01:52.179Z,38.37
2019-01-26T20:04:22.795Z,39.57
2019-01-26T20:06:54.041Z,39.60
2019-01-26T20:09:24.616Z,40.07
2019-01-26T20:11:55.230Z,39.73
2019-01-26T20:14:28.694Z,39.70
2019-01-26T20:16:58.928Z,40.63
2019-01-26T20:19:29.856Z,41.17
2019-01-26T20:22:00.494Z,40.80
2019-01-26T20:24:31.703Z,39.70
2019-01-26T20:27:02.623Z,39.23
2019-01-26T20:29:37.015Z,39.17
2019-01-26T20:32:07.744Z,38.57
2019-01-26T20:34:38.651Z,38.17
2019-01-26T20:37:09.311Z,41.00
2019-01-26T20:39:39.920Z,40.63
2019-01-26T20:42:10.702Z,37.73
2019-01-26T20:44:44.399Z,39.03
2019-01-26T20:47:15.339Z,36.27
2019-01-26T20:49:47.563Z,36.93
2019-01-26T20:52:19.325Z,37.73
2019-01-26T20:54:50.299Z,38.40
2019-01-26T20:57:23.263Z,38.30
2019-01-26T20:59:54.311Z,37.70
2019-01-26T21:02:25.605Z,38.00
2019-01-26T21:04:56.122Z,38.03
2019-01-26T21:07:26.756Z,39.50
2019-01-26T21:10:02.037Z,37.23
2019-01-26T21:12:35.520Z,35.97
2019-01-26T21:15:09.262Z,34.80
2019-01-26T21:17:42.617Z,37.43
2019-01-26T21:20:16.656Z,36.17
2019-01-26T21:22:47.274Z,34.40
2019-01-26T21:25:18.629Z,31.57
2019-01-26T21:27:54.940Z,31.73
2019-01-26T21:30:28.043Z,30.07
2019-01-26T21:32:58.599Z,32.47
2019-01-26T21:35:29.985Z,34.23
2019-01-26T21:38:00.832Z,32.50
2019-01-26T21:40:32.054Z,40.27
2019-01-26T21:43:03.111Z,35.50
2019-01-26T21:45:34.093Z,40.30
2019-01-26T21:48:05.046Z,41.43
2019-01-26T21:50:35.728Z,39.30
2019-01-26T21:53:07.947Z,38.63
2019-01-26T21:55:39.655Z,41.33
2019-01-26T21:58:10.266Z,41.67
2019-01-26T22:00:40.791Z,39.87
2019-01-26T22:03:11.377Z,37.50
2019-01-26T22:05:42.396Z,39.20
2019-01-26T22:08:18.695Z,36.50
2019-01-26T22:10:49.370Z,37.60
2019-01-26T22:13:20.351Z,36.87
2019-01-26T22:15:51.062Z,37.60
2019-01-26T22:18:21.982Z,36.67
2019-01-26T22:20:52.995Z,35.77
2019-01-26T22:23:23.667Z,37.47
2019-01-26T22:25:55.659Z,39.07
2019-01-26T22:28:26.299Z,38.10
2019-01-26T22:30:57.306Z,38.13
2019-01-26T22:33:27.906Z,38.30
2019-01-26T22:35:58.513Z,40.03
2019-01-26T22:38:32.574Z,41.17
2019-01-26T22:41:03.153Z,38.03
2019-01-26T22:43:34.298Z,38.43
2019-01-26T22:46:05.384Z,40.67
2019-01-26T22:48:36.271Z,39.13
2019-01-26T22:51:07.186Z,37.17
2019-01-26T22:53:38.069Z,38.77
2019-01-26T22:56:08.787Z,41.50
2019-01-26T22:58:39.479Z,39.97
2019-01-26T23:01:14.005Z,40.67
2019-01-26T23:04:06.497Z,40.97
2019-01-26T23:06:58.532Z,39.73
2019-01-26T23:09:39.272Z,42.53
2019-01-26T23:12:29.280Z,40.37
2019-01-26T23:15:33.420Z,42.90
2019-01-26T23:18:11.226Z,42.47
2019-01-26T23:20:46.382Z,43.40
2019-01-26T23:23:36.310Z,43.33
2019-01-26T23:26:14.120Z,39.03
2019-01-26T23:28:55.259Z,38.43
2019-01-26T23:31:25.906Z,40.90
2019-01-26T23:33:56.662Z,40.50
2019-01-26T23:36:27.378Z,41.03
2019-01-26T23:39:02.208Z,42.73
2019-01-26T23:41:30.379Z,40.97
2019-01-26T23:44:01.026Z,42.77
2019-01-26T23:46:31.602Z,42.17
2019-01-26T23:49:02.099Z,42.83
2019-01-26T23:51:32.940Z,44.87
2019-01-26T23:54:06.626Z,46.07
2019-01-26T23:56:39.195Z,46.47
2019-01-26T23:59:11.626Z,43.13
